sensor_id;sensor_type;location;lat;lon;timestamp;P1;durP1;ratioP1;P2;durP2;ratioP2
34030;SDS011;20319;28.466;-16.274;2022-09-17T00:01:31;10.52;;;2.63;;
34030;SDS011;20319;28.466;-16.274;2022-09-17T00:03:57;11.77;;;2.53;;
34030;SDS011;20319;28.466;-16.274;2022-09-17T00:06:28;10.82;;;2.20;;
34030;SDS011;20319;28.466;-16.274;2022-09-17T00:08:55;8.18;;;2.45;;
34030;SDS011;20319;28.466;-16.274;2022-09-17T00:11:22;6.95;;;2.63;;
34030;SDS011;20319;28.466;-16.274;2022-09-17T00:13:50;8.55;;;2.05;;
34030;SDS011;20319;28.466;-16.274;2022-09-17T00:16:22;10.05;;;2.72;;
34030;SDS011;20319;28.466;-16.274;2022-09-17T00:18:52;8.10;;;2.90;;
34030;SDS011;20319;28.466;-16.274;2022-09-17T00:21:18;10.70;;;2.33;;
34030;SDS011;20319;28.466;-16.274;2022-09-17T00:23:46;8.43;;;2.30;;
34030;SDS011;20319;28.466;-16.274;2022-09-17T00:26:13;9.00;;;3.22;;
34030;SDS011;20319;28.466;-16.274;2022-09-17T00:28:39;8.30;;;2.60;;
34030;SDS011;20319;28.466;-16.274;2022-09-17T00:31:08;9.32;;;2.63;;
34030;SDS011;20319;28.466;-16.274;2022-09-17T00:33:37;8.20;;;2.22;;
34030;SDS011;20319;28.466;-16.274;2022-09-17T00:36:03;9.23;;;1.95;;
34030;SDS011;20319;28.466;-16.274;2022-09-17T00:38:29;12.07;;;2.50;;
34030;SDS011;20319;28.466;-16.274;2022-09-17T00:40:55;12.48;;;2.90;;
34030;SDS011;20319;28.466;-16.274;2022-09-17T00:43:38;11.98;;;2.72;;
34030;SDS011;20319;28.466;-16.274;2022-09-17T00:48:53;11.32;;;2.95;;
34030;SDS011;20319;28.466;-16.274;2022-09-17T00:51:21;7.88;;;2.50;;
34030;SDS011;20319;28.466;-16.274;2022-09-17T00:53:59;6.55;;;2.50;;
34030;SDS011;20319;28.466;-16.274;2022-09-17T00:56:40;9.55;;;2.90;;
34030;SDS011;20319;28.466;-16.274;2022-09-17T00:59:07;7.57;;;2.20;;
34030;SDS011;20319;28.466;-16.274;2022-09-17T01:01:34;6.68;;;2.47;;
34030;SDS011;20319;28.466;-16.274;2022-09-17T01:04:01;8.57;;;2.45;;
34030;SDS011;20319;28.466;-16.274;2022-09-17T01:17:19;9.48;;;3.20;;
34030;SDS011;20319;28.466;-16.274;2022-09-17T01:25:23;8.00;;;2.60;;
34030;SDS011;20319;28.466;-16.274;2022-09-17T01:36:41;7.82;;;2.40;;
34030;SDS011;20319;28.466;-16.274;2022-09-17T01:45:39;8.45;;;2.55;;
34030;SDS011;20319;28.466;-16.274;2022-09-17T01:51:07;10.55;;;2.53;;
34030;SDS011;20319;28.466;-16.274;2022-09-17T01:53:40;7.80;;;2.72;;
34030;SDS011;20319;28.466;-16.274;2022-09-17T01:56:13;7.97;;;2.58;;
34030;SDS011;20319;28.466;-16.274;2022-09-17T01:58:44;10.52;;;2.58;;
34030;SDS011;20319;28.466;-16.274;2022-09-17T02:01:16;7.33;;;2.83;;
34030;SDS011;20319;28.466;-16.274;2022-09-17T02:04:04;8.48;;;2.65;;
34030;SDS011;20319;28.466;-16.274;2022-09-17T02:06:38;8.57;;;2.77;;
34030;SDS011;20319;28.466;-16.274;2022-09-17T02:09:17;11.30;;;3.25;;
34030;SDS011;20319;28.466;-16.274;2022-09-17T02:11:51;7.80;;;2.67;;
34030;SDS011;20319;28.466;-16.274;2022-09-17T02:17:19;12.30;;;3.17;;
34030;SDS011;20319;28.466;-16.274;2022-09-17T02:19:51;9.13;;;2.42;;
34030;SDS011;20319;28.466;-16.274;2022-09-17T02:22:27;10.75;;;2.72;;
34030;SDS011;20319;28.466;-16.274;2022-09-17T02:25:03;14.30;;;2.97;;
34030;SDS011;20319;28.466;-16.274;2022-09-17T02:28:03;12.48;;;3.10;;
34030;SDS011;20319;28.466;-16.274;2022-09-17T02:30:33;9.73;;;2.95;;
34030;SDS011;20319;28.466;-16.274;2022-09-17T02:33:00;8.98;;;2.80;;
34030;SDS011;20319;28.466;-16.274;2022-09-17T02:35:29;11.95;;;3.13;;
34030;SDS011;20319;28.466;-16.274;2022-09-17T02:37:56;8.82;;;2.95;;
34030;SDS011;20319;28.466;-16.274;2022-09-17T02:40:22;9.23;;;2.78;;
34030;SDS011;20319;28.466;-16.274;2022-09-17T02:48:19;11.80;;;3.15;;
34030;SDS011;20319;28.466;-16.274;2022-09-17T03:05:11;11.85;;;3.60;;
34030;SDS011;20319;28.466;-16.274;2022-09-17T03:07:40;12.45;;;3.20;;
34030;SDS011;20319;28.466;-16.274;2022-09-17T03:10:07;17.92;;;3.50;;
34030;SDS011;20319;28.466;-16.274;2022-09-17T03:12:32;12.02;;;3.72;;
34030;SDS011;20319;28.466;-16.274;2022-09-17T03:14:59;15.88;;;4.68;;
34030;SDS011;20319;28.466;-16.274;2022-09-17T03:17:25;16.02;;;3.58;;
34030;SDS011;20319;28.466;-16.274;2022-09-17T03:19:51;17.23;;;7.65;;
34030;SDS011;20319;28.466;-16.274;2022-09-17T03:22:17;15.00;;;4.28;;
34030;SDS011;20319;28.466;-16.274;2022-09-17T03:24:42;11.15;;;3.97;;
34030;SDS011;20319;28.466;-16.274;2022-09-17T03:27:08;14.80;;;3.50;;
34030;SDS011;20319;28.466;-16.274;2022-09-17T03:29:34;16.10;;;3.83;;
34030;SDS011;20319;28.466;-16.274;2022-09-17T03:31:59;10.27;;;3.30;;
34030;SDS011;20319;28.466;-16.274;2022-09-17T03:34:25;9.20;;;2.78;;
34030;SDS011;20319;28.466;-16.274;2022-09-17T03:36:51;9.80;;;3.60;;
34030;SDS011;20319;28.466;-16.274;2022-09-17T03:39:16;9.75;;;3.50;;
34030;SDS011;20319;28.466;-16.274;2022-09-17T03:41:42;17.00;;;3.38;;
34030;SDS011;20319;28.466;-16.274;2022-09-17T03:44:08;14.85;;;3.25;;
34030;SDS011;20319;28.466;-16.274;2022-09-17T03:46:34;13.68;;;2.88;;
34030;SDS011;20319;28.466;-16.274;2022-09-17T03:49:00;14.57;;;3.63;;
34030;SDS011;20319;28.466;-16.274;2022-09-17T03:51:26;20.80;;;3.60;;
34030;SDS011;20319;28.466;-16.274;2022-09-17T03:53:52;12.60;;;3.45;;
34030;SDS011;20319;28.466;-16.274;2022-09-17T03:56:18;11.35;;;3.50;;
34030;SDS011;20319;28.466;-16.274;2022-09-17T03:58:43;13.20;;;3.92;;
34030;SDS011;20319;28.466;-16.274;2022-09-17T04:01:09;8.18;;;2.95;;
34030;SDS011;20319;28.466;-16.274;2022-09-17T04:03:35;16.00;;;3.83;;
34030;SDS011;20319;28.466;-16.274;2022-09-17T04:06:01;15.18;;;3.97;;
34030;SDS011;20319;28.466;-16.274;2022-09-17T04:08:26;15.48;;;3.90;;
34030;SDS011;20319;28.466;-16.274;2022-09-17T04:10:52;14.25;;;3.47;;
34030;SDS011;20319;28.466;-16.274;2022-09-17T04:13:18;11.07;;;3.53;;
34030;SDS011;20319;28.466;-16.274;2022-09-17T04:15:45;17.88;;;4.05;;
34030;SDS011;20319;28.466;-16.274;2022-09-17T04:18:11;13.82;;;3.58;;
34030;SDS011;20319;28.466;-16.274;2022-09-17T04:20:38;15.15;;;4.07;;
34030;SDS011;20319;28.466;-16.274;2022-09-17T04:23:04;14.68;;;3.45;;
34030;SDS011;20319;28.466;-16.274;2022-09-17T04:25:31;9.75;;;3.28;;
34030;SDS011;20319;28.466;-16.274;2022-09-17T04:27:58;9.77;;;3.20;;
34030;SDS011;20319;28.466;-16.274;2022-09-17T04:30:23;15.90;;;3.47;;
34030;SDS011;20319;28.466;-16.274;2022-09-17T04:32:49;12.57;;;3.25;;
34030;SDS011;20319;28.466;-16.274;2022-09-17T04:35:15;15.93;;;3.95;;
34030;SDS011;20319;28.466;-16.274;2022-09-17T04:37:40;12.38;;;3.53;;
34030;SDS011;20319;28.466;-16.274;2022-09-17T04:40:06;14.00;;;3.72;;
34030;SDS011;20319;28.466;-16.274;2022-09-17T04:42:32;14.32;;;3.88;;
34030;SDS011;20319;28.466;-16.274;2022-09-17T04:44:58;16.48;;;3.75;;
34030;SDS011;20319;28.466;-16.274;2022-09-17T04:47:24;14.32;;;3.40;;
34030;SDS011;20319;28.466;-16.274;2022-09-17T04:49:50;16.25;;;3.70;;
34030;SDS011;20319;28.466;-16.274;2022-09-17T04:52:16;15.10;;;3.35;;
34030;SDS011;20319;28.466;-16.274;2022-09-17T04:54:42;12.82;;;3.25;;
34030;SDS011;20319;28.466;-16.274;2022-09-17T04:57:07;14.82;;;3.40;;
34030;SDS011;20319;28.466;-16.274;2022-09-17T04:59:33;13.90;;;3.40;;
34030;SDS011;20319;28.466;-16.274;2022-09-17T05:01:58;20.05;;;4.07;;
34030;SDS011;20319;28.466;-16.274;2022-09-17T05:04:24;15.13;;;3.65;;
34030;SDS011;20319;28.466;-16.274;2022-09-17T05:06:50;18.52;;;3.85;;
34030;SDS011;20319;28.466;-16.274;2022-09-17T05:09:15;13.05;;;3.58;;
34030;SDS011;20319;28.466;-16.274;2022-09-17T05:11:41;16.63;;;3.60;;
34030;SDS011;20319;28.466;-16.274;2022-09-17T05:14:07;15.98;;;4.13;;
34030;SDS011;20319;28.466;-16.274;2022-09-17T05:16:33;14.32;;;3.90;;
34030;SDS011;20319;28.466;-16.274;2022-09-17T05:18:58;12.02;;;4.10;;
34030;SDS011;20319;28.466;-16.274;2022-09-17T05:21:24;15.07;;;3.58;;
34030;SDS011;20319;28.466;-16.274;2022-09-17T05:23:49;20.58;;;4.18;;
34030;SDS011;20319;28.466;-16.274;2022-09-17T05:26:15;16.52;;;3.83;;
34030;SDS011;20319;28.466;-16.274;2022-09-17T05:28:43;12.00;;;3.80;;
34030;SDS011;20319;28.466;-16.274;2022-09-17T05:31:09;11.40;;;3.50;;
34030;SDS011;20319;28.466;-16.274;2022-09-17T05:33:34;11.13;;;3.47;;
34030;SDS011;20319;28.466;-16.274;2022-09-17T05:36:00;14.38;;;3.83;;
34030;SDS011;20319;28.466;-16.274;2022-09-17T05:38:26;14.27;;;4.00;;
34030;SDS011;20319;28.466;-16.274;2022-09-17T05:40:52;11.48;;;3.65;;
34030;SDS011;20319;28.466;-16.274;2022-09-17T05:43:17;14.23;;;3.80;;
34030;SDS011;20319;28.466;-16.274;2022-09-17T05:45:43;15.23;;;3.80;;
34030;SDS011;20319;28.466;-16.274;2022-09-17T05:48:12;15.80;;;3.47;;
34030;SDS011;20319;28.466;-16.274;2022-09-17T05:50:39;15.70;;;4.00;;
34030;SDS011;20319;28.466;-16.274;2022-09-17T05:53:06;20.75;;;3.60;;
34030;SDS011;20319;28.466;-16.274;2022-09-17T05:55:34;12.30;;;3.78;;
34030;SDS011;20319;28.466;-16.274;2022-09-17T05:58:00;12.93;;;4.03;;
34030;SDS011;20319;28.466;-16.274;2022-09-17T06:00:32;15.35;;;4.30;;
34030;SDS011;20319;28.466;-16.274;2022-09-17T06:02:58;15.85;;;4.05;;
34030;SDS011;20319;28.466;-16.274;2022-09-17T06:05:24;16.95;;;3.78;;
34030;SDS011;20319;28.466;-16.274;2022-09-17T06:07:49;16.30;;;3.92;;
34030;SDS011;20319;28.466;-16.274;2022-09-17T06:10:16;11.65;;;3.80;;
34030;SDS011;20319;28.466;-16.274;2022-09-17T06:12:41;18.23;;;3.88;;
34030;SDS011;20319;28.466;-16.274;2022-09-17T06:15:07;20.42;;;4.28;;
34030;SDS011;20319;28.466;-16.274;2022-09-17T06:17:35;17.52;;;3.83;;
34030;SDS011;20319;28.466;-16.274;2022-09-17T06:20:02;19.05;;;4.13;;
34030;SDS011;20319;28.466;-16.274;2022-09-17T06:22:30;16.48;;;4.18;;
34030;SDS011;20319;28.466;-16.274;2022-09-17T06:24:55;19.27;;;4.00;;
34030;SDS011;20319;28.466;-16.274;2022-09-17T06:27:28;15.55;;;4.13;;
34030;SDS011;20319;28.466;-16.274;2022-09-17T06:29:55;18.63;;;3.75;;
34030;SDS011;20319;28.466;-16.274;2022-09-17T06:32:27;15.75;;;3.75;;
34030;SDS011;20319;28.466;-16.274;2022-09-17T06:34:53;16.83;;;3.67;;
34030;SDS011;20319;28.466;-16.274;2022-09-17T06:37:20;17.27;;;4.00;;
34030;SDS011;20319;28.466;-16.274;2022-09-17T06:40:00;13.25;;;4.03;;
34030;SDS011;20319;28.466;-16.274;2022-09-17T06:42:26;11.75;;;3.38;;
34030;SDS011;20319;28.466;-16.274;2022-09-17T06:44:52;14.60;;;4.20;;
34030;SDS011;20319;28.466;-16.274;2022-09-17T06:47:18;19.27;;;4.53;;
34030;SDS011;20319;28.466;-16.274;2022-09-17T06:49:44;19.15;;;4.35;;
34030;SDS011;20319;28.466;-16.274;2022-09-17T06:52:10;18.65;;;4.40;;
34030;SDS011;20319;28.466;-16.274;2022-09-17T06:54:36;11.80;;;4.45;;
34030;SDS011;20319;28.466;-16.274;2022-09-17T06:57:01;16.00;;;4.00;;
34030;SDS011;20319;28.466;-16.274;2022-09-17T06:59:27;17.17;;;3.97;;
34030;SDS011;20319;28.466;-16.274;2022-09-17T07:01:53;20.67;;;4.43;;
34030;SDS011;20319;28.466;-16.274;2022-09-17T07:04:19;19.65;;;4.25;;
34030;SDS011;20319;28.466;-16.274;2022-09-17T07:06:44;21.27;;;4.72;;
34030;SDS011;20319;28.466;-16.274;2022-09-17T07:09:11;14.73;;;3.95;;
34030;SDS011;20319;28.466;-16.274;2022-09-17T07:11:37;18.85;;;4.18;;
34030;SDS011;20319;28.466;-16.274;2022-09-17T07:14:03;17.52;;;4.30;;
34030;SDS011;20319;28.466;-16.274;2022-09-17T07:16:29;17.08;;;3.75;;
34030;SDS011;20319;28.466;-16.274;2022-09-17T07:19:00;17.30;;;4.40;;
34030;SDS011;20319;28.466;-16.274;2022-09-17T07:21:26;18.42;;;4.20;;
34030;SDS011;20319;28.466;-16.274;2022-09-17T07:23:52;20.25;;;4.10;;
34030;SDS011;20319;28.466;-16.274;2022-09-17T07:26:17;21.63;;;4.43;;
34030;SDS011;20319;28.466;-16.274;2022-09-17T07:28:43;13.32;;;4.30;;
34030;SDS011;20319;28.466;-16.274;2022-09-17T07:31:09;17.15;;;4.10;;
34030;SDS011;20319;28.466;-16.274;2022-09-17T07:33:36;17.50;;;4.13;;
34030;SDS011;20319;28.466;-16.274;2022-09-17T07:36:03;18.73;;;4.53;;
34030;SDS011;20319;28.466;-16.274;2022-09-17T07:38:31;19.80;;;4.28;;
34030;SDS011;20319;28.466;-16.274;2022-09-17T07:41:13;18.58;;;4.50;;
34030;SDS011;20319;28.466;-16.274;2022-09-17T07:43:41;15.90;;;3.97;;
34030;SDS011;20319;28.466;-16.274;2022-09-17T07:46:09;23.33;;;5.13;;
34030;SDS011;20319;28.466;-16.274;2022-09-17T07:48:39;25.20;;;5.55;;
34030;SDS011;20319;28.466;-16.274;2022-09-17T07:51:04;24.63;;;4.28;;
34030;SDS011;20319;28.466;-16.274;2022-09-17T07:53:30;16.65;;;5.07;;
34030;SDS011;20319;28.466;-16.274;2022-09-17T07:55:57;22.85;;;8.73;;
34030;SDS011;20319;28.466;-16.274;2022-09-17T07:58:31;21.48;;;5.30;;
34030;SDS011;20319;28.466;-16.274;2022-09-17T08:03:28;23.98;;;8.30;;
34030;SDS011;20319;28.466;-16.274;2022-09-17T08:05:59;14.65;;;4.80;;
34030;SDS011;20319;28.466;-16.274;2022-09-17T08:08:28;18.75;;;5.40;;
34030;SDS011;20319;28.466;-16.274;2022-09-17T08:10:58;16.60;;;4.55;;
34030;SDS011;20319;28.466;-16.274;2022-09-17T08:13:25;18.75;;;5.43;;
34030;SDS011;20319;28.466;-16.274;2022-09-17T08:15:51;19.30;;;5.15;;
34030;SDS011;20319;28.466;-16.274;2022-09-17T08:18:16;19.95;;;5.00;;
34030;SDS011;20319;28.466;-16.274;2022-09-17T08:20:42;21.50;;;5.68;;
34030;SDS011;20319;28.466;-16.274;2022-09-17T08:23:08;20.02;;;5.20;;
34030;SDS011;20319;28.466;-16.274;2022-09-17T08:25:34;19.95;;;4.63;;
34030;SDS011;20319;28.466;-16.274;2022-09-17T08:28:02;23.27;;;4.47;;
34030;SDS011;20319;28.466;-16.274;2022-09-17T08:30:33;21.08;;;5.38;;
34030;SDS011;20319;28.466;-16.274;2022-09-17T08:32:59;16.52;;;4.47;;
34030;SDS011;20319;28.466;-16.274;2022-09-17T08:35:24;17.95;;;4.70;;
34030;SDS011;20319;28.466;-16.274;2022-09-17T08:37:53;19.27;;;4.53;;
34030;SDS011;20319;28.466;-16.274;2022-09-17T08:40:20;24.30;;;5.55;;
34030;SDS011;20319;28.466;-16.274;2022-09-17T08:45:23;17.65;;;4.85;;
34030;SDS011;20319;28.466;-16.274;2022-09-17T08:47:50;20.27;;;5.40;;
34030;SDS011;20319;28.466;-16.274;2022-09-17T08:50:33;21.48;;;7.45;;
34030;SDS011;20319;28.466;-16.274;2022-09-17T08:56:05;22.20;;;5.28;;
34030;SDS011;20319;28.466;-16.274;2022-09-17T08:58:55;15.07;;;5.78;;
34030;SDS011;20319;28.466;-16.274;2022-09-17T09:07:05;24.27;;;6.00;;
34030;SDS011;20319;28.466;-16.274;2022-09-17T09:09:42;15.10;;;5.65;;
34030;SDS011;20319;28.466;-16.274;2022-09-17T09:12:17;22.13;;;6.65;;
34030;SDS011;20319;28.466;-16.274;2022-09-17T09:14:55;19.48;;;5.47;;
34030;SDS011;20319;28.466;-16.274;2022-09-17T09:17:27;16.90;;;5.65;;
34030;SDS011;20319;28.466;-16.274;2022-09-17T09:19:58;18.53;;;5.17;;
34030;SDS011;20319;28.466;-16.274;2022-09-17T09:25:25;19.85;;;5.03;;
34030;SDS011;20319;28.466;-16.274;2022-09-17T09:30:29;21.05;;;5.95;;
34030;SDS011;20319;28.466;-16.274;2022-09-17T09:33:28;19.20;;;4.93;;
34030;SDS011;20319;28.466;-16.274;2022-09-17T09:35:57;21.00;;;5.40;;
34030;SDS011;20319;28.466;-16.274;2022-09-17T09:38:32;21.98;;;7.43;;
34030;SDS011;20319;28.466;-16.274;2022-09-17T09:41:12;25.90;;;6.00;;
34030;SDS011;20319;28.466;-16.274;2022-09-17T09:46:39;20.73;;;6.25;;
34030;SDS011;20319;28.466;-16.274;2022-09-17T09:52:24;23.80;;;7.65;;
34030;SDS011;20319;28.466;-16.274;2022-09-17T09:57:58;22.95;;;9.13;;
34030;SDS011;20319;28.466;-16.274;2022-09-17T10:03:09;23.63;;;5.10;;
34030;SDS011;20319;28.466;-16.274;2022-09-17T10:05:57;21.15;;;5.20;;
34030;SDS011;20319;28.466;-16.274;2022-09-17T10:08:31;17.30;;;5.47;;
34030;SDS011;20319;28.466;-16.274;2022-09-17T10:11:15;19.63;;;5.22;;
34030;SDS011;20319;28.466;-16.274;2022-09-17T10:13:50;19.15;;;4.38;;
34030;SDS011;20319;28.466;-16.274;2022-09-17T10:18:53;24.05;;;4.80;;
34030;SDS011;20319;28.466;-16.274;2022-09-17T10:21:38;21.63;;;5.28;;
34030;SDS011;20319;28.466;-16.274;2022-09-17T10:27:02;18.13;;;5.10;;
34030;SDS011;20319;28.466;-16.274;2022-09-17T10:29:32;15.68;;;4.22;;
34030;SDS011;20319;28.466;-16.274;2022-09-17T10:32:00;16.13;;;3.97;;
34030;SDS011;20319;28.466;-16.274;2022-09-17T10:34:30;23.63;;;5.07;;
34030;SDS011;20319;28.466;-16.274;2022-09-17T10:36:57;22.60;;;4.60;;
34030;SDS011;20319;28.466;-16.274;2022-09-17T10:41:52;21.30;;;4.80;;
34030;SDS011;20319;28.466;-16.274;2022-09-17T10:44:23;20.48;;;4.57;;
34030;SDS011;20319;28.466;-16.274;2022-09-17T10:46:51;20.15;;;4.57;;
34030;SDS011;20319;28.466;-16.274;2022-09-17T10:52:18;20.67;;;5.07;;
34030;SDS011;20319;28.466;-16.274;2022-09-17T10:57:21;19.13;;;4.13;;
34030;SDS011;20319;28.466;-16.274;2022-09-17T11:00:09;20.23;;;4.53;;
34030;SDS011;20319;28.466;-16.274;2022-09-17T11:08:10;22.83;;;5.18;;
34030;SDS011;20319;28.466;-16.274;2022-09-17T11:10:50;21.25;;;4.90;;
34030;SDS011;20319;28.466;-16.274;2022-09-17T11:13:29;17.92;;;4.32;;
34030;SDS011;20319;28.466;-16.274;2022-09-17T11:24:49;19.42;;;4.32;;
34030;SDS011;20319;28.466;-16.274;2022-09-17T11:30:38;21.35;;;4.45;;
34030;SDS011;20319;28.466;-16.274;2022-09-17T11:35:52;23.30;;;5.22;;
34030;SDS011;20319;28.466;-16.274;2022-09-17T11:38:26;18.30;;;4.38;;
34030;SDS011;20319;28.466;-16.274;2022-09-17T11:41:02;18.40;;;4.25;;
34030;SDS011;20319;28.466;-16.274;2022-09-17T11:46:24;19.88;;;4.75;;
34030;SDS011;20319;28.466;-16.274;2022-09-17T11:48:59;25.95;;;3.78;;
34030;SDS011;20319;28.466;-16.274;2022-09-17T11:51:39;18.10;;;4.45;;
34030;SDS011;20319;28.466;-16.274;2022-09-17T11:54:14;22.52;;;4.70;;
34030;SDS011;20319;28.466;-16.274;2022-09-17T11:56:52;19.02;;;4.35;;
34030;SDS011;20319;28.466;-16.274;2022-09-17T11:59:38;23.73;;;4.50;;
34030;SDS011;20319;28.466;-16.274;2022-09-17T12:02:48;17.27;;;3.83;;
34030;SDS011;20319;28.466;-16.274;2022-09-17T12:05:27;22.98;;;4.90;;
34030;SDS011;20319;28.466;-16.274;2022-09-17T12:08:03;26.45;;;4.55;;
34030;SDS011;20319;28.466;-16.274;2022-09-17T12:13:40;19.13;;;4.38;;
34030;SDS011;20319;28.466;-16.274;2022-09-17T12:30:02;16.48;;;4.80;;
34030;SDS011;20319;28.466;-16.274;2022-09-17T12:43:58;17.30;;;4.35;;
34030;SDS011;20319;28.466;-16.274;2022-09-17T13:01:09;20.67;;;4.80;;
34030;SDS011;20319;28.466;-16.274;2022-09-17T13:03:48;23.48;;;5.78;;
34030;SDS011;20319;28.466;-16.274;2022-09-17T13:06:28;20.27;;;5.38;;
34030;SDS011;20319;28.466;-16.274;2022-09-17T13:17:55;23.27;;;10.55;;
34030;SDS011;20319;28.466;-16.274;2022-09-17T13:20:33;17.38;;;5.30;;
34030;SDS011;20319;28.466;-16.274;2022-09-17T13:23:07;19.77;;;5.03;;
34030;SDS011;20319;28.466;-16.274;2022-09-17T13:25:36;20.83;;;4.85;;
34030;SDS011;20319;28.466;-16.274;2022-09-17T13:28:14;24.70;;;5.63;;
34030;SDS011;20319;28.466;-16.274;2022-09-17T13:30:58;20.52;;;5.15;;
34030;SDS011;20319;28.466;-16.274;2022-09-17T13:39:02;21.52;;;7.65;;
34030;SDS011;20319;28.466;-16.274;2022-09-17T13:41:31;21.88;;;5.18;;
34030;SDS011;20319;28.466;-16.274;2022-09-17T13:44:01;20.55;;;6.07;;
34030;SDS011;20319;28.466;-16.274;2022-09-17T13:46:29;24.83;;;7.22;;
34030;SDS011;20319;28.466;-16.274;2022-09-17T13:49:01;21.33;;;5.22;;
34030;SDS011;20319;28.466;-16.274;2022-09-17T13:53:57;16.52;;;5.05;;
34030;SDS011;20319;28.466;-16.274;2022-09-17T13:59:06;25.98;;;4.85;;
34030;SDS011;20319;28.466;-16.274;2022-09-17T14:02:18;18.33;;;4.30;;
34030;SDS011;20319;28.466;-16.274;2022-09-17T14:04:47;20.08;;;4.53;;
34030;SDS011;20319;28.466;-16.274;2022-09-17T14:09:58;22.63;;;5.22;;
34030;SDS011;20319;28.466;-16.274;2022-09-17T14:15:29;21.05;;;4.97;;
34030;SDS011;20319;28.466;-16.274;2022-09-17T14:17:56;22.08;;;5.00;;
34030;SDS011;20319;28.466;-16.274;2022-09-17T14:20:23;18.73;;;4.10;;
34030;SDS011;20319;28.466;-16.274;2022-09-17T14:22:56;19.85;;;4.50;;
34030;SDS011;20319;28.466;-16.274;2022-09-17T14:25:59;16.63;;;4.43;;
34030;SDS011;20319;28.466;-16.274;2022-09-17T14:31:07;25.10;;;4.57;;
34030;SDS011;20319;28.466;-16.274;2022-09-17T14:33:41;16.83;;;4.68;;
34030;SDS011;20319;28.466;-16.274;2022-09-17T14:36:10;18.52;;;4.95;;
34030;SDS011;20319;28.466;-16.274;2022-09-17T14:38:41;26.13;;;5.10;;
34030;SDS011;20319;28.466;-16.274;2022-09-17T14:46:22;20.15;;;4.63;;
34030;SDS011;20319;28.466;-16.274;2022-09-17T14:51:43;21.23;;;4.78;;
34030;SDS011;20319;28.466;-16.274;2022-09-17T14:56:55;21.70;;;4.97;;
34030;SDS011;20319;28.466;-16.274;2022-09-17T15:02:39;26.70;;;5.50;;
34030;SDS011;20319;28.466;-16.274;2022-09-17T15:07:45;25.23;;;6.43;;
34030;SDS011;20319;28.466;-16.274;2022-09-17T15:10:13;20.13;;;5.53;;
34030;SDS011;20319;28.466;-16.274;2022-09-17T15:12:46;23.15;;;5.57;;
34030;SDS011;20319;28.466;-16.274;2022-09-17T15:15:17;22.85;;;6.50;;
34030;SDS011;20319;28.466;-16.274;2022-09-17T15:17:46;21.93;;;8.63;;
34030;SDS011;20319;28.466;-16.274;2022-09-17T15:20:17;19.92;;;5.72;;
34030;SDS011;20319;28.466;-16.274;2022-09-17T15:22:48;20.67;;;4.75;;
34030;SDS011;20319;28.466;-16.274;2022-09-17T15:25:28;17.75;;;5.95;;
34030;SDS011;20319;28.466;-16.274;2022-09-17T15:27:55;22.92;;;5.38;;
34030;SDS011;20319;28.466;-16.274;2022-09-17T15:30:23;20.92;;;4.72;;
34030;SDS011;20319;28.466;-16.274;2022-09-17T15:32:53;20.40;;;4.50;;
34030;SDS011;20319;28.466;-16.274;2022-09-17T15:35:22;17.40;;;4.75;;
34030;SDS011;20319;28.466;-16.274;2022-09-17T15:37:58;20.95;;;4.65;;
34030;SDS011;20319;28.466;-16.274;2022-09-17T15:43:38;22.63;;;6.32;;
34030;SDS011;20319;28.466;-16.274;2022-09-17T15:48:54;19.95;;;6.50;;
34030;SDS011;20319;28.466;-16.274;2022-09-17T15:51:26;29.15;;;6.95;;
34030;SDS011;20319;28.466;-16.274;2022-09-17T15:53:57;21.38;;;5.22;;
34030;SDS011;20319;28.466;-16.274;2022-09-17T15:56:35;18.30;;;4.82;;
34030;SDS011;20319;28.466;-16.274;2022-09-17T16:04:19;24.38;;;4.68;;
34030;SDS011;20319;28.466;-16.274;2022-09-17T16:06:54;19.90;;;4.82;;
34030;SDS011;20319;28.466;-16.274;2022-09-17T16:09:37;18.23;;;7.18;;
34030;SDS011;20319;28.466;-16.274;2022-09-17T16:12:10;18.92;;;4.45;;
34030;SDS011;20319;28.466;-16.274;2022-09-17T16:14:37;18.27;;;4.80;;
34030;SDS011;20319;28.466;-16.274;2022-09-17T16:17:07;22.73;;;4.90;;
34030;SDS011;20319;28.466;-16.274;2022-09-17T16:19:43;16.33;;;4.93;;
34030;SDS011;20319;28.466;-16.274;2022-09-17T16:22:09;18.10;;;4.35;;
34030;SDS011;20319;28.466;-16.274;2022-09-17T16:24:34;20.38;;;5.20;;
34030;SDS011;20319;28.466;-16.274;2022-09-17T16:27:00;19.80;;;4.25;;
34030;SDS011;20319;28.466;-16.274;2022-09-17T16:29:26;17.45;;;4.57;;
34030;SDS011;20319;28.466;-16.274;2022-09-17T16:31:54;28.23;;;5.88;;
34030;SDS011;20319;28.466;-16.274;2022-09-17T16:34:20;17.08;;;4.43;;
34030;SDS011;20319;28.466;-16.274;2022-09-17T16:36:46;19.98;;;4.55;;
34030;SDS011;20319;28.466;-16.274;2022-09-17T16:39:11;17.92;;;4.80;;
34030;SDS011;20319;28.466;-16.274;2022-09-17T16:41:37;17.75;;;4.65;;
34030;SDS011;20319;28.466;-16.274;2022-09-17T16:44:02;25.33;;;4.55;;
34030;SDS011;20319;28.466;-16.274;2022-09-17T16:46:28;24.52;;;5.18;;
34030;SDS011;20319;28.466;-16.274;2022-09-17T16:48:54;21.33;;;7.53;;
34030;SDS011;20319;28.466;-16.274;2022-09-17T16:51:19;21.63;;;8.38;;
34030;SDS011;20319;28.466;-16.274;2022-09-17T16:53:45;22.92;;;5.22;;
34030;SDS011;20319;28.466;-16.274;2022-09-17T16:56:12;24.38;;;4.70;;
34030;SDS011;20319;28.466;-16.274;2022-09-17T16:58:39;27.23;;;6.38;;
34030;SDS011;20319;28.466;-16.274;2022-09-17T17:01:12;20.40;;;5.93;;
34030;SDS011;20319;28.466;-16.274;2022-09-17T17:06:05;28.88;;;15.77;;
34030;SDS011;20319;28.466;-16.274;2022-09-17T17:08:31;26.35;;;11.05;;
34030;SDS011;20319;28.466;-16.274;2022-09-17T17:10:57;18.88;;;6.80;;
34030;SDS011;20319;28.466;-16.274;2022-09-17T17:13:23;18.90;;;6.38;;
34030;SDS011;20319;28.466;-16.274;2022-09-17T17:15:49;24.58;;;5.72;;
34030;SDS011;20319;28.466;-16.274;2022-09-17T17:18:15;21.02;;;5.15;;
34030;SDS011;20319;28.466;-16.274;2022-09-17T17:20:44;19.05;;;4.85;;
34030;SDS011;20319;28.466;-16.274;2022-09-17T17:23:11;22.88;;;5.18;;
34030;SDS011;20319;28.466;-16.274;2022-09-17T17:25:37;20.20;;;5.68;;
34030;SDS011;20319;28.466;-16.274;2022-09-17T17:28:06;23.95;;;5.22;;
34030;SDS011;20319;28.466;-16.274;2022-09-17T17:30:32;19.33;;;4.65;;
34030;SDS011;20319;28.466;-16.274;2022-09-17T17:33:03;21.13;;;5.03;;
34030;SDS011;20319;28.466;-16.274;2022-09-17T17:35:29;24.02;;;4.95;;
34030;SDS011;20319;28.466;-16.274;2022-09-17T17:38:03;22.60;;;5.22;;
34030;SDS011;20319;28.466;-16.274;2022-09-17T17:40:29;19.52;;;4.60;;
34030;SDS011;20319;28.466;-16.274;2022-09-17T17:42:57;21.88;;;4.95;;
34030;SDS011;20319;28.466;-16.274;2022-09-17T17:45:25;17.35;;;5.60;;
34030;SDS011;20319;28.466;-16.274;2022-09-17T17:47:51;24.77;;;4.90;;
34030;SDS011;20319;28.466;-16.274;2022-09-17T17:50:17;19.60;;;5.25;;
34030;SDS011;20319;28.466;-16.274;2022-09-17T17:52:54;22.25;;;6.25;;
34030;SDS011;20319;28.466;-16.274;2022-09-17T17:55:20;25.35;;;5.18;;
34030;SDS011;20319;28.466;-16.274;2022-09-17T17:57:46;16.55;;;7.18;;
34030;SDS011;20319;28.466;-16.274;2022-09-17T18:00:12;23.38;;;7.18;;
34030;SDS011;20319;28.466;-16.274;2022-09-17T18:02:41;19.05;;;6.40;;
34030;SDS011;20319;28.466;-16.274;2022-09-17T18:05:07;23.25;;;5.30;;
34030;SDS011;20319;28.466;-16.274;2022-09-17T18:07:35;16.80;;;4.22;;
34030;SDS011;20319;28.466;-16.274;2022-09-17T18:10:01;22.50;;;5.07;;
34030;SDS011;20319;28.466;-16.274;2022-09-17T18:12:29;20.77;;;5.00;;
34030;SDS011;20319;28.466;-16.274;2022-09-17T18:14:57;24.67;;;5.32;;